Terminal Aerodrome Forecast
Issued by NWS Cleveland, OH

Home | Current Version | Previous Version | Text Only | Print | Product List | Glossary On
Versions: 1 2 3 4 5 6 7 8 9 10 11 12 13 14 15 16 17 18 19 20
148
FTUS41 KCLE 232336
TAFCAK
TAF
KCAK 232336Z 2400/2424 VRB03KT P6SM BKN250
     FM240900 15003KT 4SM BR BKN250
     FM241300 21007KT P6SM SCT100 BKN250
     FM242300 VRB03KT P6SM OVC250=

USA.gov is the U.S. government's official web portal to all federal, state and local government web resources and services.